Time;durP1;ratioP1;P1;durP2;ratioP2;P2;SDS_P1;SDS_P2;PMS_P1;PMS_P2;Temp;Humidity;BMP_temperature;BMP_pressure;BME280_temperature;BME280_humidity;BME280_pressure;Samples;Min_cycle;Max_cycle;Signal;HPM_P1;HPM_P2
2023/03/20 00:00:29;;;;;;;14.48;10.02;;;282.20;2278.40;;;;;;4991907;28;20027;-64
2023/03/20 00:02:55;;;;;;;30.30;20.10;;;282.40;2278.40;;;;;;4991740;28;20030;-64
2023/03/20 00:05:23;;;;;;;77.93;59.42;;;282.30;2278.40;;;;;;4991800;28;20022;-62
2023/03/20 00:07:49;;;;;;;26.00;19.85;;;282.30;2278.40;;;;;;4991740;28;20105;-64
2023/03/20 00:10:17;;;;;;;22.30;13.93;;;282.50;2278.40;;;;;;4991627;28;20023;-63
2023/03/20 00:12:45;;;;;;;28.35;18.90;;;282.40;2278.40;;;;;;4982851;28;20062;-65
2023/03/20 00:15:25;;;;;;;41.25;23.98;;;282.30;2278.40;;;;;;4991297;28;20069;-65
2023/03/20 00:17:51;;;;;;;30.05;18.90;;;282.20;2278.40;;;;;;4991337;28;20021;-66
2023/03/20 00:20:17;;;;;;;61.40;42.78;;;282.20;2278.40;;;;;;4991563;28;20092;-66
2023/03/20 00:22:43;;;;;;;24.80;17.85;;;282.20;2278.40;;;;;;4991592;28;20049;-67
2023/03/20 00:25:14;;;;;;;29.05;17.42;;;282.20;2278.40;;;;;;4991391;28;20442;-63
2023/03/20 00:27:40;;;;;;;26.63;17.08;;;282.30;2278.40;;;;;;4991259;28;20381;-62
2023/03/20 00:30:20;;;;;;;134.32;89.00;;;282.20;2278.40;;;;;;4991355;28;20026;-65
2023/03/20 00:32:47;;;;;;;42.17;30.60;;;282.20;2278.40;;;;;;4991313;28;20018;-65
2023/03/20 00:35:22;;;;;;;20.70;14.77;;;282.30;2278.40;;;;;;4990988;28;20034;-65
2023/03/20 00:37:48;;;;;;;47.25;29.73;;;282.20;2278.40;;;;;;4990637;28;20026;-66
2023/03/20 00:40:14;;;;;;;30.65;17.60;;;282.00;2278.40;;;;;;4991134;28;20026;-61
2023/03/20 00:42:40;;;;;;;19.80;14.32;;;282.00;2278.40;;;;;;4990963;28;20473;-63
2023/03/20 00:45:12;;;;;;;19.90;13.07;;;281.80;2278.40;;;;;;4990402;28;20120;-68
2023/03/20 00:47:40;;;;;;;39.67;23.50;;;281.70;2278.40;;;;;;4989898;28;20027;-68
2023/03/20 00:50:20;;;;;;;60.95;46.08;;;281.90;2278.40;;;;;;4981858;28;20034;-67
2023/03/20 00:52:47;;;;;;;21.52;15.07;;;282.10;2278.40;;;;;;4989857;28;20049;-62
2023/03/20 00:55:13;;;;;;;18.67;12.93;;;282.20;2278.40;;;;;;4990033;28;20133;-64
2023/03/20 00:57:54;;;;;;;16.83;12.77;;;282.30;2278.40;;;;;;4990742;28;20528;-61
2023/03/20 01:00:30;;;;;;;40.60;25.60;;;282.20;2278.40;;;;;;4983921;28;20109;-63
2023/03/20 01:02:57;;;;;;;28.65;18.63;;;282.20;2278.40;;;;;;4990754;28;20022;-60
2023/03/20 01:05:24;;;;;;;23.40;16.13;;;282.20;2278.40;;;;;;4990858;28;20039;-61
2023/03/20 01:07:50;;;;;;;29.70;17.75;;;282.30;2278.40;;;;;;4990459;28;20473;-61
2023/03/20 01:10:17;;;;;;;55.08;36.85;;;282.30;2278.40;;;;;;4990884;28;20035;-68
2023/03/20 01:12:44;;;;;;;30.27;21.38;;;282.30;2278.40;;;;;;4990326;28;20038;-62
2023/03/20 01:15:20;;;;;;;23.23;15.10;;;282.30;2278.40;;;;;;4990379;28;20133;-61
2023/03/20 01:17:46;;;;;;;27.10;20.27;;;282.30;2278.40;;;;;;4990235;28;20026;-61
2023/03/20 01:20:20;;;;;;;16.20;12.68;;;282.30;2278.40;;;;;;4972495;28;20042;-61
2023/03/20 01:22:45;;;;;;;25.85;17.17;;;282.10;2278.40;;;;;;4990514;28;20101;-61
2023/03/20 01:25:11;;;;;;;73.57;52.75;;;282.00;2278.40;;;;;;4990199;28;20109;-67
2023/03/20 01:27:37;;;;;;;92.00;61.38;;;282.00;2278.40;;;;;;4990538;28;20104;-66
2023/03/20 01:30:14;;;;;;;26.88;17.10;;;282.00;2278.40;;;;;;4973070;28;20504;-62
2023/03/20 01:32:40;;;;;;;40.05;27.23;;;282.00;2278.40;;;;;;4988214;28;20026;-62
2023/03/20 01:35:06;;;;;;;34.13;21.45;;;282.00;2278.40;;;;;;4979081;28;20029;-67
2023/03/20 01:37:32;;;;;;;52.38;36.55;;;282.00;2278.40;;;;;;4988574;28;20022;-66
2023/03/20 01:39:58;;;;;;;45.97;29.40;;;281.90;2278.40;;;;;;4990307;28;20389;-62
2023/03/20 01:42:24;;;;;;;25.50;19.02;;;281.90;2278.40;;;;;;4989749;28;20034;-70
2023/03/20 01:44:50;;;;;;;21.20;14.38;;;281.90;2278.40;;;;;;4990037;28;20023;-63
2023/03/20 01:47:22;;;;;;;20.70;14.63;;;281.90;2278.40;;;;;;4989743;28;20026;-64
2023/03/20 01:50:15;;;;;;;21.50;13.05;;;281.80;2278.40;;;;;;4990218;28;20018;-66
2023/03/20 01:52:41;;;;;;;36.53;21.90;;;281.90;2278.40;;;;;;4989859;28;20030;-62
2023/03/20 01:55:07;;;;;;;34.10;23.95;;;281.80;2278.40;;;;;;4989941;28;20023;-61
2023/03/20 01:57:33;;;;;;;20.55;14.18;;;281.80;2278.40;;;;;;4989927;28;20030;-62
2023/03/20 02:00:08;;;;;;;17.42;12.93;;;281.80;2278.40;;;;;;4984414;28;20883;-61
2023/03/20 02:02:34;;;;;;;25.08;13.63;;;281.80;2278.40;;;;;;4989199;28;20543;-64
2023/03/20 02:05:07;;;;;;;15.48;10.20;;;281.80;2278.40;;;;;;4989886;28;20018;-61
2023/03/20 02:07:33;;;;;;;;;;;281.70;2278.40;;;;;;4989977;28;20080;-63
2023/03/20 02:10:04;;;;;;;16.30;12.25;;;281.70;2278.40;;;;;;4989657;28;19906;-62
2023/03/20 02:12:31;;;;;;;19.30;11.27;;;281.60;2278.40;;;;;;4989533;28;20440;-62
2023/03/20 02:14:57;;;;;;;18.17;10.68;;;256.90;2252.80;;;;;;4989542;28;20069;-61
2023/03/20 02:17:23;;;;;;;17.98;11.57;;;256.90;2252.80;;;;;;4989212;28;20018;-68
2023/03/20 02:20:05;;;;;;;13.20;9.05;;;256.80;2252.80;;;;;;4989682;28;20027;-61
2023/03/20 02:22:46;;;;;;;15.50;9.13;;;256.80;2252.80;;;;;;4989311;28;20022;-67
2023/03/20 02:25:46;;;;;;;18.73;10.60;;;256.80;2252.80;;;;;;4989087;28;20054;-62
2023/03/20 02:28:48;;;;;;;12.93;8.77;;;256.90;2252.80;;;;;;4910102;29;20110;-65
2023/03/20 02:31:32;;;;;;;11.93;7.60;;;256.80;2252.80;;;;;;4910078;29;20040;-67
2023/03/20 02:34:13;;;;;;;12.00;8.85;;;256.70;2252.80;;;;;;4910510;29;20029;-64
2023/03/20 02:36:56;;;;;;;16.85;11.15;;;256.70;2252.80;;;;;;4910393;29;20032;-62
2023/03/20 02:39:28;;;;;;;;;;;256.70;2252.80;;;;;;4903761;29;20036;-63
2023/03/20 02:42:07;;;;;;;18.45;13.00;;;256.70;2252.80;;;;;;4909836;29;20001;-68
2023/03/20 02:45:03;;;;;;;18.13;11.50;;;256.60;2252.80;;;;;;4902385;29;20040;-66
2023/03/20 02:47:52;;;;;;;28.33;17.30;;;256.50;2252.80;;;;;;4902448;29;20037;-62
2023/03/20 02:51:02;;;;;;;19.90;13.23;;;256.50;2252.80;;;;;;4902497;29;20506;-62
2023/03/20 02:53:34;;;;;;;27.80;19.10;;;256.60;2252.80;;;;;;4910476;29;20032;-62
2023/03/20 02:56:17;;;;;;;17.95;12.55;;;256.70;2252.80;;;;;;4910180;29;20079;-68
2023/03/20 02:58:52;;;;;;;29.35;18.88;;;256.80;2252.80;;;;;;4905471;29;20139;-62
2023/03/20 03:01:30;;;;;;;22.80;15.18;;;256.70;2252.80;;;;;;4907418;29;20555;-68
2023/03/20 03:04:01;;;;;;;23.40;15.02;;;256.80;2252.80;;;;;;4927534;28;20049;-68
2023/03/20 03:06:31;;;;;;;23.17;15.13;;;256.80;2252.80;;;;;;4993104;28;20033;-68
2023/03/20 03:09:03;;;;;;;20.55;13.25;;;256.90;2252.80;;;;;;4993041;28;20113;-64
2023/03/20 03:11:36;;;;;;;17.80;11.43;;;256.90;2252.80;;;;;;4974778;28;20426;-63
2023/03/20 03:14:04;;;;;;;16.67;10.65;;;256.80;2252.80;;;;;;4992051;28;20039;-62
2023/03/20 03:16:35;;;;;;;39.28;25.52;;;256.80;2252.80;;;;;;4992283;28;20038;-62
2023/03/20 03:19:18;;;;;;;39.75;25.67;;;256.60;2252.80;;;;;;4992714;28;20022;-61
2023/03/20 03:21:46;;;;;;;19.05;11.82;;;256.70;2252.80;;;;;;4992663;28;20381;-62
2023/03/20 03:24:30;;;;;;;66.65;39.63;;;256.60;2252.80;;;;;;4992700;28;20247;-61
2023/03/20 03:27:03;;;;;;;64.80;39.42;;;256.60;2252.80;;;;;;4992517;28;20022;-61
2023/03/20 03:29:38;;;;;;;34.25;21.25;;;256.60;2252.80;;;;;;4992380;28;20366;-62
2023/03/20 03:32:06;;;;;;;50.70;33.17;;;256.70;2252.80;;;;;;4991915;28;20069;-68
2023/03/20 03:34:33;;;;;;;36.25;23.30;;;256.70;2252.80;;;;;;4992200;28;20026;-61
2023/03/20 03:37:02;;;;;;;13.88;9.55;;;256.70;2252.80;;;;;;4974035;28;20057;-62
2023/03/20 03:39:36;;;;;;;12.85;7.75;;;256.40;2252.80;;;;;;4992196;28;20035;-64
2023/03/20 03:42:50;;;;;;;17.15;10.10;;;256.70;2252.80;;;;;;4991877;28;20512;-61
2023/03/20 03:45:30;;;;;;;16.55;10.05;;;256.80;2252.80;;;;;;4910692;29;20578;-61
2023/03/20 03:48:21;;;;;;;9.88;6.65;;;281.60;2278.40;;;;;;4912784;29;20037;-64
2023/03/20 03:50:56;;;;;;;10.27;6.97;;;281.60;2278.40;;;;;;4912705;29;20523;-61
2023/03/20 03:53:35;;;;;;;17.90;12.43;;;256.90;2252.80;;;;;;4912581;29;20136;-62
2023/03/20 03:56:05;;;;;;;18.45;11.93;;;256.80;2252.80;;;;;;4896234;29;20040;-66
2023/03/20 03:58:41;;;;;;;18.52;13.23;;;256.80;2252.80;;;;;;4917565;29;20034;-62
2023/03/20 04:01:12;;;;;;;17.30;12.77;;;256.50;2252.80;;;;;;4917348;29;20532;-61
2023/03/20 04:03:46;;;;;;;13.90;9.82;;;256.70;2252.80;;;;;;4912849;29;20028;-68
2023/03/20 04:06:12;;;;;;;10.48;8.50;;;256.80;2252.80;;;;;;4911157;29;20387;-67
2023/03/20 04:08:41;;;;;;;11.90;8.40;;;256.80;2252.80;;;;;;4912838;29;20443;-62
2023/03/20 04:11:18;;;;;;;10.68;7.97;;;256.90;2252.80;;;;;;4909944;29;20041;-63
2023/03/20 04:13:46;;;;;;;30.83;25.80;;;281.60;2278.40;;;;;;4911615;29;20052;-61
2023/03/20 04:16:13;;;;;;;16.45;10.65;;;281.60;2278.40;;;;;;4908535;29;20067;-67
2023/03/20 04:18:39;;;;;;;25.95;17.73;;;281.60;2278.40;;;;;;4912477;29;20095;-63
2023/03/20 04:21:06;;;;;;;21.42;16.17;;;256.90;2252.80;;;;;;4926845;28;20469;-65
2023/03/20 04:23:32;;;;;;;18.20;13.10;;;256.80;2252.80;;;;;;4984758;28;20030;-67
2023/03/20 04:25:58;;;;;;;12.02;8.93;;;256.70;2252.80;;;;;;4978415;28;20081;-61
2023/03/20 04:28:24;;;;;;;13.80;9.95;;;256.90;2252.80;;;;;;4991205;28;20066;-61
2023/03/20 04:30:58;;;;;;;15.07;11.30;;;256.80;2252.80;;;;;;4990978;28;20034;-66
2023/03/20 04:33:25;;;;;;;17.70;12.23;;;256.80;2252.80;;;;;;4991212;28;20456;-61
2023/03/20 04:35:51;;;;;;;15.70;11.68;;;256.80;2252.80;;;;;;4991494;28;20022;-64
2023/03/20 04:38:18;;;;;;;15.18;11.20;;;256.80;2252.80;;;;;;4991248;28;20545;-66
2023/03/20 04:40:45;;;;;;;18.52;10.93;;;256.80;2252.80;;;;;;4993168;28;20026;-61
2023/03/20 04:43:11;;;;;;;14.25;10.18;;;256.80;2252.80;;;;;;4991816;28;20065;-64
2023/03/20 04:45:37;;;;;;;18.38;12.90;;;256.80;2252.80;;;;;;4992397;28;20121;-64
2023/03/20 04:48:03;;;;;;;18.63;13.63;;;256.80;2252.80;;;;;;4992385;28;20503;-62
2023/03/20 04:50:29;;;;;;;17.13;12.23;;;256.80;2252.80;;;;;;4992597;28;20377;-63
2023/03/20 04:52:55;;;;;;;23.25;16.15;;;256.90;2252.80;;;;;;4992208;28;20034;-68
2023/03/20 04:55:21;;;;;;;23.52;17.27;;;256.70;2252.80;;;;;;4991058;28;20026;-65
2023/03/20 04:57:47;;;;;;;34.60;21.48;;;256.70;2252.80;;;;;;4990943;28;20053;-61
2023/03/20 05:00:14;;;;;;;37.90;26.50;;;256.80;2252.80;;;;;;4990776;28;20039;-68
2023/03/20 05:02:40;;;;;;;30.13;23.85;;;256.90;2252.80;;;;;;4968566;28;20030;-63
2023/03/20 05:05:06;;;;;;;35.80;23.95;;;281.70;2278.40;;;;;;4965218;28;20023;-63
2023/03/20 05:07:32;;;;;;;37.85;24.42;;;281.90;2278.40;;;;;;4971112;28;20414;-62
2023/03/20 05:09:58;;;;;;;22.20;16.27;;;282.00;2278.40;;;;;;4971287;28;20077;-62
2023/03/20 05:12:25;;;;;;;29.13;19.95;;;282.20;2278.40;;;;;;4985970;28;20042;-64
2023/03/20 05:14:51;;;;;;;39.95;21.75;;;282.20;2278.40;;;;;;4990209;28;20084;-65
2023/03/20 05:17:18;;;;;;;38.30;23.00;;;282.20;2278.40;;;;;;4990441;28;20080;-70
2023/03/20 05:19:44;;;;;;;34.88;20.13;;;282.30;2278.40;;;;;;4990619;28;20405;-70
2023/03/20 05:22:10;;;;;;;33.38;18.15;;;282.50;2278.40;;;;;;4990183;28;20031;-62
2023/03/20 05:24:35;;;;;;;31.38;17.45;;;282.50;2252.80;;;;;;4989976;28;20424;-71
2023/03/20 05:27:01;;;;;;;33.92;18.05;;;282.40;2252.80;;;;;;4979856;28;20034;-61
2023/03/20 05:29:27;;;;;;;28.05;15.25;;;282.50;2252.80;;;;;;4990244;28;20473;-60
2023/03/20 05:31:54;;;;;;;23.60;13.30;;;307.30;2252.80;;;;;;4976204;28;20039;-64
2023/03/20 05:34:20;;;;;;;14.70;9.95;;;307.30;2252.80;;;;;;4990390;28;20033;-62
2023/03/20 05:36:46;;;;;;;13.45;10.98;;;307.50;2227.20;;;;;;4986780;28;20563;-62
2023/03/20 05:39:11;;;;;;;18.00;9.63;;;307.80;2201.60;;;;;;4980338;28;20105;-62
2023/03/20 05:41:37;;;;;;;11.95;9.38;;;308.00;2176.00;;;;;;4977207;28;20053;-69
2023/03/20 05:44:03;;;;;;;12.60;9.07;;;308.10;2176.00;;;;;;4984199;28;20034;-62
2023/03/20 05:46:29;;;;;;;20.35;9.93;;;332.80;2201.60;;;;;;4987936;28;20049;-63
2023/03/20 05:48:55;;;;;;;14.43;10.43;;;333.00;2176.00;;;;;;4983734;28;20061;-63
2023/03/20 05:51:21;;;;;;;16.65;10.73;;;333.30;2124.80;;;;;;4978019;28;20036;-68
2023/03/20 05:53:46;;;;;;;16.02;10.85;;;333.50;2073.60;;;;;;4989263;28;20493;-62
2023/03/20 05:56:12;;;;;;;25.63;21.58;;;333.70;2048.00;;;;;;4989478;28;20048;-63
2023/03/20 05:58:38;;;;;;;14.88;12.02;;;358.50;2048.00;;;;;;4989743;28;20473;-66
2023/03/20 06:01:04;;;;;;;16.17;11.55;;;358.50;2048.00;;;;;;4989684;28;20022;-62
2023/03/20 06:03:29;;;;;;;18.65;11.13;;;358.70;2022.40;;;;;;4989354;28;20038;-63
2023/03/20 06:05:55;;;;;;;17.48;11.75;;;358.80;1996.80;;;;;;4990243;28;20401;-63
2023/03/20 06:08:21;;;;;;;19.15;13.80;;;359.00;1971.20;;;;;;4989629;28;20022;-62
2023/03/20 06:10:49;;;;;;;57.58;41.88;;;359.30;1971.20;;;;;;4989740;28;20081;-69
2023/03/20 06:13:15;;;;;;;31.58;25.98;;;384.70;1868.80;;;;;;4989476;28;20046;-63
2023/03/20 06:15:40;;;;;;;37.42;29.15;;;410.00;1843.20;;;;;;4989580;28;20033;-73
2023/03/20 06:18:06;;;;;;;103.72;89.30;;;410.30;1817.60;;;;;;4989239;28;20045;-63
2023/03/20 06:20:32;;;;;;;130.05;115.03;;;435.60;1766.40;;;;;;4989573;28;20030;-63
2023/03/20 06:22:57;;;;;;;77.93;70.88;;;460.90;1715.20;;;;;;4989782;28;20034;-60
2023/03/20 06:25:23;;;;;;;79.15;73.18;;;461.50;1664.00;;;;;;4989544;28;20125;-60
2023/03/20 06:27:49;;;;;;;18.27;13.73;;;486.50;1612.80;;;;;;4989788;28;20022;-63
2023/03/20 06:30:16;;;;;;;30.50;27.80;;;486.80;1587.20;;;;;;4989731;28;20022;-63
2023/03/20 06:32:42;;;;;;;12.75;10.45;;;487.20;1561.60;;;;;;4989283;28;20492;-64
2023/03/20 06:35:08;;;;;;;15.20;12.68;;;512.20;1536.00;;;;;;4989943;28;20031;-63
2023/03/20 06:37:35;;;;;;;18.38;13.40;;;512.70;1510.40;;;;;;4993361;28;20058;-64
2023/03/20 06:40:02;;;;;;;13.07;11.55;;;538.00;1484.80;;;;;;4993483;28;20049;-64
2023/03/20 06:42:28;;;;;;;14.32;10.98;;;538.40;1459.20;;;;;;4993070;28;20030;-64
2023/03/20 06:44:55;;;;;;;15.77;12.98;;;563.40;1459.20;;;;;;4993175;28;20031;-70
2023/03/20 06:47:21;;;;;;;21.45;12.15;;;563.70;1433.60;;;;;;4992866;28;20488;-66
2023/03/20 06:49:47;;;;;;;16.90;12.75;;;564.10;1408.00;;;;;;4993146;28;20037;-66
2023/03/20 06:52:17;;;;;;;24.20;18.85;;;588.80;1433.60;;;;;;4992965;28;20042;-63
2023/03/20 06:54:43;;;;;;;20.50;18.05;;;589.00;1408.00;;;;;;4992748;28;20477;-65
2023/03/20 06:57:09;;;;;;;19.30;17.27;;;589.50;1382.40;;;;;;4993134;28;20030;-64
2023/03/20 06:59:35;;;;;;;14.02;12.52;;;589.70;1356.80;;;;;;4993003;28;20023;-64
2023/03/20 07:02:01;;;;;;;14.82;12.15;;;614.60;1305.60;;;;;;4992766;28;20101;-63
2023/03/20 07:04:27;;;;;;;16.92;12.75;;;614.90;1305.60;;;;;;4992637;28;20033;-63
2023/03/20 07:06:52;;;;;;;14.18;12.65;;;615.30;1280.00;;;;;;4993047;28;20105;-67
2023/03/20 07:09:19;;;;;;;16.10;13.05;;;640.70;1254.40;;;;;;4975147;28;20046;-63
2023/03/20 07:11:46;;;;;;;13.85;12.05;;;665.70;1254.40;;;;;;4992746;28;20385;-68
2023/03/20 07:14:13;;;;;;;16.15;12.25;;;665.60;1254.40;;;;;;4992035;28;20043;-63
2023/03/20 07:16:38;;;;;;;13.82;11.65;;;640.80;1228.80;;;;;;4992646;28;20038;-62
2023/03/20 07:19:04;;;;;;;13.23;11.85;;;640.30;1254.40;;;;;;4992460;28;20025;-63
2023/03/20 07:21:30;;;;;;;20.30;15.40;;;665.60;1254.40;;;;;;4992537;28;20432;-61
2023/03/20 07:23:56;;;;;;;18.23;15.77;;;691.30;1203.20;;;;;;4992670;28;20023;-60
2023/03/20 07:26:22;;;;;;;15.52;12.63;;;691.70;1152.00;;;;;;4992807;28;20037;-62
2023/03/20 07:28:48;;;;;;;15.57;12.35;;;716.90;1152.00;;;;;;4992666;28;20436;-60
2023/03/20 07:31:22;;;;;;;12.10;10.02;;;717.10;1152.00;;;;;;4991671;28;20116;-61
2023/03/20 07:33:47;;;;;;;11.98;9.25;;;742.50;1126.40;;;;;;4968350;28;20512;-58
2023/03/20 07:36:13;;;;;;;10.85;9.45;;;742.70;1126.40;;;;;;4985335;28;20062;-59
2023/03/20 07:38:39;;;;;;;9.93;8.93;;;768.50;1075.20;;;;;;4992078;28;20018;-59
2023/03/20 07:41:05;;;;;;;10.50;9.45;;;794.00;1049.60;;;;;;4992338;28;20022;-60
2023/03/20 07:43:31;;;;;;;13.15;11.85;;;794.50;1024.00;;;;;;4991612;28;20023;-59
2023/03/20 07:45:57;;;;;;;11.20;10.18;;;794.10;1024.00;;;;;;4992052;28;20607;-58
2023/03/20 07:48:22;;;;;;;14.25;10.77;;;819.60;1024.00;;;;;;4991851;28;20101;-59
2023/03/20 07:50:48;;;;;;;11.68;10.48;;;819.60;998.40;;;;;;4992170;28;20034;-57
2023/03/20 07:53:14;;;;;;;13.73;11.27;;;819.60;998.40;;;;;;4991845;28;20027;-59
2023/03/20 07:55:39;;;;;;;11.68;10.55;;;845.20;972.80;;;;;;4991898;28;20443;-59
2023/03/20 07:58:07;;;;;;;12.07;9.95;;;845.20;972.80;;;;;;4991888;28;20599;-59
2023/03/20 08:00:33;;;;;;;12.85;11.65;;;820.10;972.80;;;;;;4991552;28;20035;-58
2023/03/20 08:02:58;;;;;;;11.32;9.95;;;845.50;972.80;;;;;;4991565;28;20441;-59
2023/03/20 08:05:24;;;;;;;11.63;10.63;;;871.00;921.60;;;;;;4991653;28;20022;-58
2023/03/20 08:07:50;;;;;;;12.32;11.13;;;871.30;896.00;;;;;;4991895;28;20022;-58
2023/03/20 08:10:16;;;;;;;22.30;17.58;;;896.30;896.00;;;;;;4992125;28;20026;-66
2023/03/20 08:12:42;;;;;;;16.52;9.73;;;845.20;972.80;;;;;;4973619;28;20077;-61
2023/03/20 08:15:08;;;;;;;19.67;17.00;;;845.50;947.20;;;;;;4991418;28;20050;-59
2023/03/20 08:17:34;;;;;;;21.27;19.00;;;871.10;921.60;;;;;;4991553;28;20027;-59
2023/03/20 08:20:00;;;;;;;11.93;9.25;;;845.40;947.20;;;;;;4991342;28;20018;-59
2023/03/20 08:22:25;;;;;;;18.42;16.52;;;819.70;972.80;;;;;;4991637;28;20073;-59
2023/03/20 08:24:51;;;;;;;10.70;9.80;;;845.50;947.20;;;;;;4991259;28;20030;-58
2023/03/20 08:27:17;;;;;;;16.33;14.68;;;844.90;972.80;;;;;;4991510;28;20036;-65
2023/03/20 08:29:42;;;;;;;11.23;10.15;;;871.10;921.60;;;;;;4991221;28;20072;-69
2023/03/20 08:32:08;;;;;;;22.75;20.63;;;871.10;896.00;;;;;;4991215;28;20039;-61
2023/03/20 08:34:34;;;;;;;10.20;9.18;;;871.20;896.00;;;;;;4991630;28;20476;-70
2023/03/20 08:37:02;;;;;;;26.33;20.08;;;896.50;896.00;;;;;;4991125;28;20350;-69
2023/03/20 08:39:28;;;;;;;12.18;10.95;;;896.00;870.40;;;;;;4991230;28;20073;-68
2023/03/20 08:41:54;;;;;;;15.05;13.50;;;870.90;896.00;;;;;;4990620;28;20022;-68
2023/03/20 08:44:20;;;;;;;13.88;12.65;;;871.10;896.00;;;;;;4991074;28;20033;-66
2023/03/20 08:46:46;;;;;;;98.68;89.00;;;871.00;896.00;;;;;;4988788;28;20022;-68
2023/03/20 08:49:11;;;;;;;13.13;11.73;;;896.20;870.40;;;;;;4989245;28;20440;-64
2023/03/20 08:51:37;;;;;;;13.88;12.25;;;870.80;870.40;;;;;;4989060;28;20049;-63
2023/03/20 08:54:03;;;;;;;8.73;7.85;;;870.70;896.00;;;;;;4989353;28;20026;-58
2023/03/20 08:56:29;;;;;;;12.27;9.40;;;768.50;972.80;;;;;;4989433;28;20720;-58
2023/03/20 08:58:55;;;;;;;11.23;10.13;;;794.40;972.80;;;;;;4972811;28;20113;-56
2023/03/20 09:01:21;;;;;;;16.27;14.55;;;819.30;947.20;;;;;;4969303;28;20434;-56
2023/03/20 09:03:46;;;;;;;10.25;9.35;;;819.30;947.20;;;;;;4969471;28;20023;-64
2023/03/20 09:06:12;;;;;;;10.88;9.20;;;793.70;972.80;;;;;;4969261;28;20484;-56
2023/03/20 09:08:38;;;;;;;9.88;7.55;;;768.60;947.20;;;;;;4969812;28;20030;-57
2023/03/20 09:11:05;;;;;;;9.15;8.25;;;743.30;972.80;;;;;;4983410;28;20034;-58
2023/03/20 09:13:31;;;;;;;14.60;13.07;;;743.00;998.40;;;;;;4988389;28;20440;-57
2023/03/20 09:15:57;;;;;;;22.42;20.02;;;717.50;998.40;;;;;;4988893;28;20038;-58
2023/03/20 09:18:23;;;;;;;13.50;10.45;;;691.80;1024.00;;;;;;4988983;28;20413;-67
2023/03/20 09:20:49;;;;;;;9.65;8.45;;;691.20;1049.60;;;;;;4988521;28;20049;-63
2023/03/20 09:23:16;;;;;;;10.52;8.48;;;640.80;1075.20;;;;;;4988829;28;20026;-63
2023/03/20 09:25:41;;;;;;;8.52;6.53;;;614.70;1152.00;;;;;;4988458;28;20182;-65
2023/03/20 09:28:07;;;;;;;9.73;7.25;;;614.60;1152.00;;;;;;4988328;28;20541;-66
2023/03/20 09:30:33;;;;;;;10.23;8.05;;;589.60;1177.60;;;;;;4988754;28;20054;-67
2023/03/20 09:32:59;;;;;;;14.43;11.27;;;614.40;1203.20;;;;;;4988796;28;20523;-66
2023/03/20 09:35:25;;;;;;;9.57;8.60;;;614.80;1177.60;;;;;;4988867;28;20026;-57
2023/03/20 09:37:51;;;;;;;9.32;7.15;;;589.30;1228.80;;;;;;4988049;28;20057;-55
2023/03/20 09:40:28;;;;;;;9.10;7.38;;;589.60;1203.20;;;;;;4973603;28;20034;-57
2023/03/20 09:43:17;;;;;;;7.97;7.18;;;589.70;1203.20;;;;;;4968935;28;20031;-58
2023/03/20 09:46:00;;;;;;;15.55;10.68;;;589.40;1203.20;;;;;;4985310;28;20031;-58
2023/03/20 09:48:45;;;;;;;10.98;7.97;;;589.10;1203.20;;;;;;4988059;28;20033;-60
2023/03/20 09:51:39;;;;;;;12.27;10.45;;;589.20;1228.80;;;;;;4977165;28;20042;-64
2023/03/20 09:54:12;;;;;;;11.35;8.73;;;564.00;1254.40;;;;;;4988451;28;20065;-64
2023/03/20 09:56:38;;;;;;;10.10;8.63;;;589.30;1228.80;;;;;;4988368;28;20072;-62
2023/03/20 09:59:05;;;;;;;11.00;9.73;;;589.40;1228.80;;;;;;4988282;28;20038;-65
2023/03/20 10:01:50;;;;;;;10.68;8.18;;;563.90;1254.40;;;;;;4987901;28;20031;-63
2023/03/20 10:04:16;;;;;;;10.35;7.80;;;563.90;1254.40;;;;;;4987935;28;20358;-63
2023/03/20 10:06:42;;;;;;;8.02;6.97;;;564.00;1254.40;;;;;;4988191;28;20026;-64
2023/03/20 10:09:26;;;;;;;9.20;7.80;;;563.90;1280.00;;;;;;4988115;28;20030;-58
2023/03/20 10:11:58;;;;;;;9.23;6.97;;;564.10;1254.40;;;;;;4986336;28;20035;-59
2023/03/20 10:14:48;;;;;;;9.43;6.65;;;563.90;1228.80;;;;;;4987953;28;20761;-56
2023/03/20 10:17:43;;;;;;;8.57;7.45;;;589.10;1228.80;;;;;;4975946;28;20026;-60
2023/03/20 10:20:35;;;;;;;12.30;6.57;;;563.60;1280.00;;;;;;4958163;28;20481;-57
2023/03/20 10:23:19;;;;;;;9.70;7.35;;;563.90;1280.00;;;;;;4987571;28;20374;-61
2023/03/20 10:25:51;;;;;;;12.60;10.25;;;563.70;1280.00;;;;;;4987959;28;20106;-57
2023/03/20 10:28:23;;;;;;;13.13;10.93;;;563.90;1280.00;;;;;;4987976;28;20018;-59
2023/03/20 10:30:59;;;;;;;10.90;7.03;;;564.10;1280.00;;;;;;4987591;28;20026;-60
2023/03/20 10:33:37;;;;;;;9.70;6.15;;;563.40;1280.00;;;;;;4988160;28;20018;-57
2023/03/20 10:36:16;;;;;;;11.00;8.50;;;538.50;1305.60;;;;;;4987697;28;20054;-61
2023/03/20 10:38:58;;;;;;;11.40;6.40;;;538.50;1254.40;;;;;;4987916;28;20023;-61
2023/03/20 10:41:31;;;;;;;9.87;6.97;;;564.00;1280.00;;;;;;4979718;28;20178;-59
2023/03/20 10:43:58;;;;;;;11.15;8.98;;;564.10;1280.00;;;;;;4974830;28;20034;-58
2023/03/20 10:46:34;;;;;;;16.27;11.18;;;588.90;1254.40;;;;;;4987480;28;20085;-63
2023/03/20 10:49:17;;;;;;;12.50;9.95;;;589.00;1280.00;;;;;;4987856;28;20113;-59
2023/03/20 10:51:55;;;;;;;11.77;7.68;;;588.90;1254.40;;;;;;4971445;28;20030;-62
2023/03/20 10:54:38;;;;;;;9.77;7.30;;;564.10;1280.00;;;;;;4987695;28;20671;-58
2023/03/20 10:57:05;;;;;;;;;;;563.60;1305.60;;;;;;4977171;28;20026;-59
2023/03/20 10:59:57;;;;;;;10.90;8.00;;;563.30;1331.20;;;;;;4987430;28;19913;-57
2023/03/20 11:02:32;;;;;;;14.07;10.15;;;538.40;1331.20;;;;;;4984510;28;20109;-59
2023/03/20 11:05:19;;;;;;;13.10;9.40;;;538.10;1331.20;;;;;;4987663;28;20030;-61
2023/03/20 11:07:48;;;;;;;17.95;10.60;;;538.10;1356.80;;;;;;4987571;28;20026;-60
2023/03/20 11:10:15;;;;;;;15.40;11.70;;;538.50;1331.20;;;;;;4987476;28;20072;-61
2023/03/20 11:12:44;;;;;;;13.70;11.43;;;563.40;1331.20;;;;;;4987065;28;20042;-60
2023/03/20 11:15:29;;;;;;;12.18;10.48;;;538.50;1331.20;;;;;;4987126;28;20054;-58
2023/03/20 11:18:12;;;;;;;13.15;8.52;;;563.40;1331.20;;;;;;4987563;28;20027;-62
2023/03/20 11:20:45;;;;;;;9.88;7.25;;;563.40;1356.80;;;;;;4987914;28;20043;-58
2023/03/20 11:23:16;;;;;;;9.88;6.93;;;538.30;1331.20;;;;;;4990354;28;20053;-59
2023/03/20 11:26:03;;;;;;;12.18;8.70;;;538.30;1331.20;;;;;;4990912;28;20101;-58
2023/03/20 11:28:47;;;;;;;10.95;7.25;;;538.50;1331.20;;;;;;4991020;28;20061;-58
2023/03/20 11:31:13;;;;;;;10.82;6.88;;;563.20;1356.80;;;;;;4990945;28;20125;-58
2023/03/20 11:34:21;;;;;;;11.18;7.43;;;563.40;1305.60;;;;;;4988979;28;20142;-58
2023/03/20 11:36:59;;;;;;;9.35;7.80;;;563.40;1331.20;;;;;;4990714;28;20015;-63
2023/03/20 11:39:32;;;;;;;8.25;6.75;;;563.60;1331.20;;;;;;4990892;28;20113;-63
2023/03/20 11:42:00;;;;;;;12.98;8.45;;;563.60;1331.20;;;;;;4990714;28;20072;-58
2023/03/20 11:44:29;;;;;;;13.57;9.55;;;563.60;1331.20;;;;;;4979261;28;20049;-62
2023/03/20 11:47:04;;;;;;;13.43;8.38;;;563.40;1331.20;;;;;;4987306;28;20051;-59
2023/03/20 11:49:31;;;;;;;18.48;10.52;;;538.30;1331.20;;;;;;4990310;28;20022;-58
2023/03/20 11:52:12;;;;;;;13.45;8.45;;;537.80;1356.80;;;;;;4990524;28;20037;-59
2023/03/20 11:54:47;;;;;;;15.77;8.45;;;537.80;1382.40;;;;;;4990196;28;20042;-61
2023/03/20 11:57:37;;;;;;;13.45;8.75;;;538.10;1356.80;;;;;;4990428;28;20028;-58
2023/03/20 12:00:25;;;;;;;9.52;7.78;;;538.30;1356.80;;;;;;4989292;28;20034;-61
2023/03/20 12:02:51;;;;;;;14.57;9.82;;;538.10;1356.80;;;;;;4988524;28;20709;-60
2023/03/20 12:05:27;;;;;;;14.90;8.52;;;538.30;1356.80;;;;;;4989668;28;20034;-60
2023/03/20 12:07:56;;;;;;;16.73;10.35;;;538.10;1382.40;;;;;;4988052;28;20109;-60
2023/03/20 12:10:27;;;;;;;14.93;9.55;;;538.30;1382.40;;;;;;4976374;28;20038;-61
2023/03/20 12:12:59;;;;;;;12.82;9.18;;;538.50;1356.80;;;;;;4988845;28;20491;-57
2023/03/20 12:15:31;;;;;;;11.18;7.72;;;538.50;1356.80;;;;;;4989072;28;20034;-58
2023/03/20 12:18:15;;;;;;;9.55;7.63;;;538.30;1356.80;;;;;;4989219;28;20028;-59
2023/03/20 12:21:11;;;;;;;10.95;7.70;;;538.30;1356.80;;;;;;4976273;28;20026;-63